sensor_id;sensor_type;location;lat;lon;timestamp;pressure;altitude;pressure_sealevel;temperature;humidity
62928;BME280;51070;52.236;-0.892;2023-12-14T00:01:29;100799.83;;;4.22;100.00
62928;BME280;51070;52.236;-0.892;2023-12-14T00:03:54;100797.91;;;4.16;100.00
62928;BME280;51070;52.236;-0.892;2023-12-14T00:06:19;100798.86;;;4.10;100.00
62928;BME280;51070;52.236;-0.892;2023-12-14T00:08:45;100804.83;;;4.00;100.00
62928;BME280;51070;52.236;-0.892;2023-12-14T00:11:11;100802.66;;;3.93;100.00
62928;BME280;51070;52.236;-0.892;2023-12-14T00:13:36;100807.80;;;3.87;100.00
62928;BME280;51070;52.236;-0.892;2023-12-14T00:16:02;100815.81;;;3.85;100.00
62928;BME280;51070;52.236;-0.892;2023-12-14T00:18:28;100822.94;;;3.83;100.00
62928;BME280;51070;52.236;-0.892;2023-12-14T00:20:53;100816.79;;;3.84;100.00
62928;BME280;51070;52.236;-0.892;2023-12-14T00:23:21;100813.55;;;3.83;100.00
62928;BME280;51070;52.236;-0.892;2023-12-14T00:25:47;100814.11;;;3.81;100.00
62928;BME280;51070;52.236;-0.892;2023-12-14T00:28:13;100813.09;;;3.78;100.00
62928;BME280;51070;52.236;-0.892;2023-12-14T00:30:38;100810.30;;;3.75;100.00
62928;BME280;51070;52.236;-0.892;2023-12-14T00:33:04;100818.45;;;3.71;100.00
62928;BME280;51070;52.236;-0.892;2023-12-14T00:35:29;100833.08;;;3.67;100.00
62928;BME280;51070;52.236;-0.892;2023-12-14T00:37:54;100836.20;;;3.63;100.00
62928;BME280;51070;52.236;-0.892;2023-12-14T00:40:20;100830.30;;;3.55;100.00
62928;BME280;51070;52.236;-0.892;2023-12-14T00:42:45;100826.29;;;3.49;100.00
62928;BME280;51070;52.236;-0.892;2023-12-14T00:45:10;100828.55;;;3.44;100.00
62928;BME280;51070;52.236;-0.892;2023-12-14T00:47:36;100827.68;;;3.38;100.00
62928;BME280;51070;52.236;-0.892;2023-12-14T00:50:01;100827.07;;;3.34;100.00
62928;BME280;51070;52.236;-0.892;2023-12-14T00:52:27;100826.92;;;3.29;100.00
62928;BME280;51070;52.236;-0.892;2023-12-14T00:54:52;100831.52;;;3.26;100.00
62928;BME280;51070;52.236;-0.892;2023-12-14T00:57:18;100825.83;;;3.25;100.00
62928;BME280;51070;52.236;-0.892;2023-12-14T00:59:43;100817.68;;;3.23;100.00
62928;BME280;51070;52.236;-0.892;2023-12-14T01:02:08;100821.29;;;3.21;100.00
62928;BME280;51070;52.236;-0.892;2023-12-14T01:04:33;100831.38;;;3.18;100.00
62928;BME280;51070;52.236;-0.892;2023-12-14T01:06:59;100824.63;;;3.17;100.00
62928;BME280;51070;52.236;-0.892;2023-12-14T01:09:24;100828.72;;;3.17;100.00
62928;BME280;51070;52.236;-0.892;2023-12-14T01:11:49;100835.58;;;3.17;100.00
62928;BME280;51070;52.236;-0.892;2023-12-14T01:14:15;100831.13;;;3.17;100.00
62928;BME280;51070;52.236;-0.892;2023-12-14T01:16:40;100826.85;;;3.17;100.00
62928;BME280;51070;52.236;-0.892;2023-12-14T01:19:05;100829.02;;;3.13;100.00
62928;BME280;51070;52.236;-0.892;2023-12-14T01:21:31;100830.44;;;3.09;100.00
62928;BME280;51070;52.236;-0.892;2023-12-14T01:23:57;100834.36;;;3.04;100.00
62928;BME280;51070;52.236;-0.892;2023-12-14T01:26:22;100845.79;;;3.01;100.00
62928;BME280;51070;52.236;-0.892;2023-12-14T01:28:47;100857.79;;;2.96;100.00
62928;BME280;51070;52.236;-0.892;2023-12-14T01:31:12;100856.73;;;2.93;100.00
62928;BME280;51070;52.236;-0.892;2023-12-14T01:33:38;100849.02;;;2.89;100.00
62928;BME280;51070;52.236;-0.892;2023-12-14T01:36:03;100850.33;;;2.86;100.00
62928;BME280;51070;52.236;-0.892;2023-12-14T01:38:29;100849.42;;;2.83;100.00
62928;BME280;51070;52.236;-0.892;2023-12-14T01:40:54;100856.95;;;2.80;100.00
62928;BME280;51070;52.236;-0.892;2023-12-14T01:43:21;100860.47;;;2.77;100.00
62928;BME280;51070;52.236;-0.892;2023-12-14T01:45:47;100867.91;;;2.73;100.00
62928;BME280;51070;52.236;-0.892;2023-12-14T01:48:12;100871.11;;;2.72;100.00
62928;BME280;51070;52.236;-0.892;2023-12-14T01:50:37;100869.25;;;2.73;100.00
62928;BME280;51070;52.236;-0.892;2023-12-14T01:53:03;100869.41;;;2.75;100.00
62928;BME280;51070;52.236;-0.892;2023-12-14T01:55:28;100872.35;;;2.79;100.00
62928;BME280;51070;52.236;-0.892;2023-12-14T01:57:53;100876.95;;;2.83;100.00
62928;BME280;51070;52.236;-0.892;2023-12-14T02:02:56;100879.72;;;2.92;100.00
62928;BME280;51070;52.236;-0.892;2023-12-14T02:05:22;100883.02;;;2.93;100.00
62928;BME280;51070;52.236;-0.892;2023-12-14T02:07:47;100884.46;;;2.94;100.00
62928;BME280;51070;52.236;-0.892;2023-12-14T02:10:13;100887.79;;;2.93;100.00
62928;BME280;51070;52.236;-0.892;2023-12-14T02:12:38;100887.59;;;2.90;100.00
62928;BME280;51070;52.236;-0.892;2023-12-14T02:15:03;100889.31;;;2.87;100.00
62928;BME280;51070;52.236;-0.892;2023-12-14T02:17:29;100886.92;;;2.85;100.00
62928;BME280;51070;52.236;-0.892;2023-12-14T02:19:54;100886.34;;;2.81;100.00
62928;BME280;51070;52.236;-0.892;2023-12-14T02:22:19;100880.67;;;2.78;100.00
62928;BME280;51070;52.236;-0.892;2023-12-14T02:24:45;100879.85;;;2.76;100.00
62928;BME280;51070;52.236;-0.892;2023-12-14T02:27:10;100883.41;;;2.73;100.00
62928;BME280;51070;52.236;-0.892;2023-12-14T02:29:35;100885.31;;;2.71;100.00
62928;BME280;51070;52.236;-0.892;2023-12-14T02:32:01;100887.07;;;2.69;100.00
62928;BME280;51070;52.236;-0.892;2023-12-14T02:34:26;100892.20;;;2.67;100.00
62928;BME280;51070;52.236;-0.892;2023-12-14T02:36:51;100891.15;;;2.64;100.00
62928;BME280;51070;52.236;-0.892;2023-12-14T02:39:17;100884.13;;;2.61;100.00
62928;BME280;51070;52.236;-0.892;2023-12-14T02:41:42;100883.30;;;2.58;100.00
62928;BME280;51070;52.236;-0.892;2023-12-14T02:44:07;100884.90;;;2.54;100.00
62928;BME280;51070;52.236;-0.892;2023-12-14T02:46:33;100885.61;;;2.49;100.00
62928;BME280;51070;52.236;-0.892;2023-12-14T02:48:58;100887.55;;;2.45;100.00
62928;BME280;51070;52.236;-0.892;2023-12-14T02:51:23;100885.38;;;2.43;100.00
62928;BME280;51070;52.236;-0.892;2023-12-14T02:53:49;100887.52;;;2.42;100.00
62928;BME280;51070;52.236;-0.892;2023-12-14T02:56:14;100896.41;;;2.42;100.00
62928;BME280;51070;52.236;-0.892;2023-12-14T02:58:39;100899.79;;;2.44;100.00
62928;BME280;51070;52.236;-0.892;2023-12-14T03:01:04;100900.98;;;2.47;100.00
62928;BME280;51070;52.236;-0.892;2023-12-14T03:03:30;100898.40;;;2.49;100.00
62928;BME280;51070;52.236;-0.892;2023-12-14T03:05:55;100899.73;;;2.51;100.00
62928;BME280;51070;52.236;-0.892;2023-12-14T03:08:21;100890.63;;;2.56;100.00
62928;BME280;51070;52.236;-0.892;2023-12-14T03:10:46;100891.07;;;2.60;100.00
62928;BME280;51070;52.236;-0.892;2023-12-14T03:13:11;100894.61;;;2.62;100.00
62928;BME280;51070;52.236;-0.892;2023-12-14T03:15:36;100894.23;;;2.63;100.00
62928;BME280;51070;52.236;-0.892;2023-12-14T03:18:02;100896.86;;;2.65;100.00
62928;BME280;51070;52.236;-0.892;2023-12-14T03:20:28;100903.34;;;2.65;100.00
62928;BME280;51070;52.236;-0.892;2023-12-14T03:22:54;100902.77;;;2.64;100.00
62928;BME280;51070;52.236;-0.892;2023-12-14T03:25:19;100904.17;;;2.62;100.00
62928;BME280;51070;52.236;-0.892;2023-12-14T03:27:44;100909.13;;;2.60;100.00
62928;BME280;51070;52.236;-0.892;2023-12-14T03:30:10;100909.25;;;2.56;100.00
62928;BME280;51070;52.236;-0.892;2023-12-14T03:32:36;100911.48;;;2.54;100.00
62928;BME280;51070;52.236;-0.892;2023-12-14T03:35:01;100916.35;;;2.50;100.00
62928;BME280;51070;52.236;-0.892;2023-12-14T03:37:26;100921.94;;;2.47;100.00
62928;BME280;51070;52.236;-0.892;2023-12-14T03:39:52;100924.75;;;2.45;100.00
62928;BME280;51070;52.236;-0.892;2023-12-14T03:42:17;100926.86;;;2.44;100.00
62928;BME280;51070;52.236;-0.892;2023-12-14T03:44:43;100929.98;;;2.42;100.00
62928;BME280;51070;52.236;-0.892;2023-12-14T03:47:08;100927.98;;;2.40;100.00
62928;BME280;51070;52.236;-0.892;2023-12-14T03:49:37;100923.33;;;2.40;100.00
62928;BME280;51070;52.236;-0.892;2023-12-14T03:52:03;100920.86;;;2.41;100.00
62928;BME280;51070;52.236;-0.892;2023-12-14T03:54:29;100922.73;;;2.43;100.00
62928;BME280;51070;52.236;-0.892;2023-12-14T03:56:54;100924.94;;;2.45;100.00
62928;BME280;51070;52.236;-0.892;2023-12-14T03:59:19;100919.04;;;2.46;100.00
62928;BME280;51070;52.236;-0.892;2023-12-14T04:01:45;100921.80;;;2.50;100.00
62928;BME280;51070;52.236;-0.892;2023-12-14T04:04:10;100918.80;;;2.53;100.00
62928;BME280;51070;52.236;-0.892;2023-12-14T04:06:35;100918.21;;;2.57;100.00
62928;BME280;51070;52.236;-0.892;2023-12-14T04:09:00;100921.63;;;2.62;100.00
62928;BME280;51070;52.236;-0.892;2023-12-14T04:11:26;100926.19;;;2.67;100.00
62928;BME280;51070;52.236;-0.892;2023-12-14T04:13:51;100925.23;;;2.73;100.00
62928;BME280;51070;52.236;-0.892;2023-12-14T04:16:22;100924.44;;;2.79;100.00
62928;BME280;51070;52.236;-0.892;2023-12-14T04:18:47;100922.12;;;2.85;100.00
62928;BME280;51070;52.236;-0.892;2023-12-14T04:21:13;100919.29;;;2.91;100.00
62928;BME280;51070;52.236;-0.892;2023-12-14T04:23:38;100924.45;;;2.97;100.00
62928;BME280;51070;52.236;-0.892;2023-12-14T04:26:04;100935.59;;;3.01;100.00
62928;BME280;51070;52.236;-0.892;2023-12-14T04:28:29;100938.73;;;3.01;100.00
62928;BME280;51070;52.236;-0.892;2023-12-14T04:30:54;100940.09;;;3.01;100.00
62928;BME280;51070;52.236;-0.892;2023-12-14T04:33:19;100941.92;;;3.01;100.00
62928;BME280;51070;52.236;-0.892;2023-12-14T04:35:45;100944.25;;;3.00;100.00
62928;BME280;51070;52.236;-0.892;2023-12-14T04:38:10;100952.54;;;2.99;100.00
62928;BME280;51070;52.236;-0.892;2023-12-14T04:40:36;100955.55;;;2.98;100.00
62928;BME280;51070;52.236;-0.892;2023-12-14T04:43:01;100947.25;;;2.96;100.00
62928;BME280;51070;52.236;-0.892;2023-12-14T04:45:27;100949.79;;;2.96;100.00
62928;BME280;51070;52.236;-0.892;2023-12-14T04:47:52;100951.98;;;2.95;100.00
62928;BME280;51070;52.236;-0.892;2023-12-14T04:50:18;100951.84;;;2.93;100.00
62928;BME280;51070;52.236;-0.892;2023-12-14T04:52:43;100949.14;;;2.91;100.00
62928;BME280;51070;52.236;-0.892;2023-12-14T04:55:08;100942.29;;;2.90;100.00
62928;BME280;51070;52.236;-0.892;2023-12-14T04:57:34;100936.30;;;2.90;100.00
62928;BME280;51070;52.236;-0.892;2023-12-14T04:59:59;100933.54;;;2.90;100.00
62928;BME280;51070;52.236;-0.892;2023-12-14T05:02:24;100930.69;;;2.88;100.00
62928;BME280;51070;52.236;-0.892;2023-12-14T05:04:50;100936.33;;;2.88;100.00
62928;BME280;51070;52.236;-0.892;2023-12-14T05:07:15;100935.41;;;2.90;100.00
62928;BME280;51070;52.236;-0.892;2023-12-14T05:09:40;100935.02;;;2.92;100.00
62928;BME280;51070;52.236;-0.892;2023-12-14T05:12:06;100931.38;;;2.93;100.00
62928;BME280;51070;52.236;-0.892;2023-12-14T05:14:32;100923.12;;;2.95;100.00
62928;BME280;51070;52.236;-0.892;2023-12-14T05:16:57;100923.84;;;2.99;100.00
62928;BME280;51070;52.236;-0.892;2023-12-14T05:19:23;100924.85;;;3.04;100.00
62928;BME280;51070;52.236;-0.892;2023-12-14T05:21:48;100933.02;;;3.08;100.00
62928;BME280;51070;52.236;-0.892;2023-12-14T05:24:13;100934.83;;;3.12;100.00
62928;BME280;51070;52.236;-0.892;2023-12-14T05:26:39;100940.77;;;3.20;100.00
62928;BME280;51070;52.236;-0.892;2023-12-14T05:29:04;100951.77;;;3.26;100.00
62928;BME280;51070;52.236;-0.892;2023-12-14T05:31:29;100951.02;;;3.30;100.00
62928;BME280;51070;52.236;-0.892;2023-12-14T05:33:54;100953.36;;;3.34;100.00
62928;BME280;51070;52.236;-0.892;2023-12-14T05:36:20;100957.79;;;3.37;100.00
62928;BME280;51070;52.236;-0.892;2023-12-14T05:38:46;100959.83;;;3.40;100.00
62928;BME280;51070;52.236;-0.892;2023-12-14T05:41:11;100962.38;;;3.42;100.00
62928;BME280;51070;52.236;-0.892;2023-12-14T05:43:36;100965.36;;;3.43;100.00
62928;BME280;51070;52.236;-0.892;2023-12-14T05:46:02;100967.23;;;3.43;100.00
62928;BME280;51070;52.236;-0.892;2023-12-14T05:48:27;100969.84;;;3.44;100.00
62928;BME280;51070;52.236;-0.892;2023-12-14T05:50:53;100972.04;;;3.44;100.00
62928;BME280;51070;52.236;-0.892;2023-12-14T05:53:18;100974.58;;;3.43;100.00
62928;BME280;51070;52.236;-0.892;2023-12-14T05:55:44;100978.11;;;3.43;100.00
62928;BME280;51070;52.236;-0.892;2023-12-14T05:58:09;100979.02;;;3.41;100.00
62928;BME280;51070;52.236;-0.892;2023-12-14T06:00:35;100977.51;;;3.38;100.00
62928;BME280;51070;52.236;-0.892;2023-12-14T06:03:01;100980.18;;;3.37;100.00
62928;BME280;51070;52.236;-0.892;2023-12-14T06:05:26;100983.14;;;3.38;100.00
62928;BME280;51070;52.236;-0.892;2023-12-14T06:07:52;100988.63;;;3.38;100.00
62928;BME280;51070;52.236;-0.892;2023-12-14T06:10:17;100991.36;;;3.38;100.00
62928;BME280;51070;52.236;-0.892;2023-12-14T06:12:43;100993.20;;;3.37;100.00
62928;BME280;51070;52.236;-0.892;2023-12-14T06:15:08;100992.29;;;3.40;100.00
62928;BME280;51070;52.236;-0.892;2023-12-14T06:17:34;100992.19;;;3.44;100.00
62928;BME280;51070;52.236;-0.892;2023-12-14T06:20:02;100990.61;;;3.48;100.00
62928;BME280;51070;52.236;-0.892;2023-12-14T06:22:29;100992.75;;;3.52;100.00
62928;BME280;51070;52.236;-0.892;2023-12-14T06:24:54;100985.50;;;3.56;100.00
62928;BME280;51070;52.236;-0.892;2023-12-14T06:27:20;100987.03;;;3.61;100.00
62928;BME280;51070;52.236;-0.892;2023-12-14T06:29:48;100985.24;;;3.60;100.00
62928;BME280;51070;52.236;-0.892;2023-12-14T06:32:13;100985.13;;;3.56;100.00
62928;BME280;51070;52.236;-0.892;2023-12-14T06:34:39;100981.80;;;3.49;100.00
62928;BME280;51070;52.236;-0.892;2023-12-14T06:37:04;100980.48;;;3.45;100.00
62928;BME280;51070;52.236;-0.892;2023-12-14T06:39:30;100980.09;;;3.41;100.00
62928;BME280;51070;52.236;-0.892;2023-12-14T06:41:55;100980.80;;;3.39;100.00
62928;BME280;51070;52.236;-0.892;2023-12-14T06:44:21;100988.44;;;3.35;100.00
62928;BME280;51070;52.236;-0.892;2023-12-14T06:46:46;100994.41;;;3.33;100.00
62928;BME280;51070;52.236;-0.892;2023-12-14T06:49:11;101000.63;;;3.33;100.00
62928;BME280;51070;52.236;-0.892;2023-12-14T06:51:37;100998.96;;;3.34;100.00
62928;BME280;51070;52.236;-0.892;2023-12-14T06:54:02;100996.48;;;3.33;100.00
62928;BME280;51070;52.236;-0.892;2023-12-14T06:56:28;100991.92;;;3.31;100.00
62928;BME280;51070;52.236;-0.892;2023-12-14T06:58:53;101003.29;;;3.30;100.00
62928;BME280;51070;52.236;-0.892;2023-12-14T07:01:18;101008.88;;;3.29;100.00
62928;BME280;51070;52.236;-0.892;2023-12-14T07:03:44;101013.30;;;3.29;100.00
62928;BME280;51070;52.236;-0.892;2023-12-14T07:06:13;101011.62;;;3.30;100.00
62928;BME280;51070;52.236;-0.892;2023-12-14T07:08:39;101016.89;;;3.29;100.00
62928;BME280;51070;52.236;-0.892;2023-12-14T07:11:06;101022.31;;;3.31;100.00
62928;BME280;51070;52.236;-0.892;2023-12-14T07:13:32;101020.70;;;3.35;100.00
62928;BME280;51070;52.236;-0.892;2023-12-14T07:15:57;101028.31;;;3.36;100.00
62928;BME280;51070;52.236;-0.892;2023-12-14T07:18:22;101033.17;;;3.37;100.00
62928;BME280;51070;52.236;-0.892;2023-12-14T07:20:47;101032.75;;;3.36;100.00
62928;BME280;51070;52.236;-0.892;2023-12-14T07:23:13;101029.11;;;3.36;100.00
62928;BME280;51070;52.236;-0.892;2023-12-14T07:25:38;101038.80;;;3.35;100.00
62928;BME280;51070;52.236;-0.892;2023-12-14T07:28:03;101038.09;;;3.37;100.00
62928;BME280;51070;52.236;-0.892;2023-12-14T07:30:29;101029.33;;;3.39;100.00
62928;BME280;51070;52.236;-0.892;2023-12-14T07:32:54;101031.14;;;3.41;100.00
62928;BME280;51070;52.236;-0.892;2023-12-14T07:35:19;101031.80;;;3.40;100.00
62928;BME280;51070;52.236;-0.892;2023-12-14T07:37:45;101031.14;;;3.38;100.00
62928;BME280;51070;52.236;-0.892;2023-12-14T07:40:10;101029.23;;;3.37;100.00
62928;BME280;51070;52.236;-0.892;2023-12-14T07:42:36;101034.82;;;3.37;100.00
62928;BME280;51070;52.236;-0.892;2023-12-14T07:45:02;101034.55;;;3.35;100.00
62928;BME280;51070;52.236;-0.892;2023-12-14T07:47:28;101032.81;;;3.35;100.00
62928;BME280;51070;52.236;-0.892;2023-12-14T07:49:53;101031.90;;;3.34;100.00
62928;BME280;51070;52.236;-0.892;2023-12-14T07:52:18;101034.48;;;3.34;100.00
62928;BME280;51070;52.236;-0.892;2023-12-14T07:54:44;101033.87;;;3.35;100.00
62928;BME280;51070;52.236;-0.892;2023-12-14T07:57:09;101035.02;;;3.37;100.00
62928;BME280;51070;52.236;-0.892;2023-12-14T07:59:34;101032.44;;;3.40;100.00
62928;BME280;51070;52.236;-0.892;2023-12-14T08:02:00;101032.65;;;3.41;100.00
62928;BME280;51070;52.236;-0.892;2023-12-14T08:04:25;101030.55;;;3.42;100.00
62928;BME280;51070;52.236;-0.892;2023-12-14T08:06:50;101032.28;;;3.43;100.00
62928;BME280;51070;52.236;-0.892;2023-12-14T08:09:16;101031.17;;;3.41;100.00
62928;BME280;51070;52.236;-0.892;2023-12-14T08:11:41;101029.73;;;3.40;100.00
62928;BME280;51070;52.236;-0.892;2023-12-14T08:14:07;101029.48;;;3.39;100.00
62928;BME280;51070;52.236;-0.892;2023-12-14T08:16:32;101031.52;;;3.38;100.00
62928;BME280;51070;52.236;-0.892;2023-12-14T08:18:57;101035.55;;;3.41;100.00
62928;BME280;51070;52.236;-0.892;2023-12-14T08:21:23;101035.27;;;3.41;100.00
62928;BME280;51070;52.236;-0.892;2023-12-14T08:23:48;101033.55;;;3.44;100.00
62928;BME280;51070;52.236;-0.892;2023-12-14T08:26:14;101033.47;;;3.48;100.00
62928;BME280;51070;52.236;-0.892;2023-12-14T08:28:39;101031.91;;;3.52;100.00
62928;BME280;51070;52.236;-0.892;2023-12-14T08:31:04;101034.98;;;3.58;100.00
62928;BME280;51070;52.236;-0.892;2023-12-14T08:33:30;101034.22;;;3.62;100.00
62928;BME280;51070;52.236;-0.892;2023-12-14T08:35:55;101035.20;;;3.64;100.00
62928;BME280;51070;52.236;-0.892;2023-12-14T08:38:21;101040.06;;;3.65;100.00
62928;BME280;51070;52.236;-0.892;2023-12-14T08:40:46;101037.92;;;3.69;100.00
62928;BME280;51070;52.236;-0.892;2023-12-14T08:43:12;101036.98;;;3.72;100.00
62928;BME280;51070;52.236;-0.892;2023-12-14T08:45:37;101041.96;;;3.78;100.00
62928;BME280;51070;52.236;-0.892;2023-12-14T08:48:03;101046.89;;;3.86;100.00
62928;BME280;51070;52.236;-0.892;2023-12-14T08:50:28;101045.61;;;3.93;100.00
62928;BME280;51070;52.236;-0.892;2023-12-14T08:52:53;101046.42;;;3.97;100.00
62928;BME280;51070;52.236;-0.892;2023-12-14T08:55:19;101047.98;;;4.03;100.00
62928;BME280;51070;52.236;-0.892;2023-12-14T08:57:44;101046.44;;;4.08;100.00
62928;BME280;51070;52.236;-0.892;2023-12-14T09:00:10;101046.90;;;4.10;100.00
62928;BME280;51070;52.236;-0.892;2023-12-14T09:02:35;101049.20;;;4.09;100.00
62928;BME280;51070;52.236;-0.892;2023-12-14T09:05:01;101048.91;;;4.07;100.00
62928;BME280;51070;52.236;-0.892;2023-12-14T09:07:26;101053.58;;;4.08;100.00
62928;BME280;51070;52.236;-0.892;2023-12-14T09:09:52;101058.36;;;4.07;100.00
62928;BME280;51070;52.236;-0.892;2023-12-14T09:12:17;101061.66;;;4.11;100.00
62928;BME280;51070;52.236;-0.892;2023-12-14T09:14:42;101061.77;;;4.15;100.00
62928;BME280;51070;52.236;-0.892;2023-12-14T09:17:08;101064.30;;;4.17;100.00
62928;BME280;51070;52.236;-0.892;2023-12-14T09:19:33;101065.96;;;4.19;100.00
62928;BME280;51070;52.236;-0.892;2023-12-14T09:21:58;101066.63;;;4.19;100.00
62928;BME280;51070;52.236;-0.892;2023-12-14T09:24:24;101065.64;;;4.19;100.00
62928;BME280;51070;52.236;-0.892;2023-12-14T09:26:49;101065.18;;;4.20;100.00
62928;BME280;51070;52.236;-0.892;2023-12-14T09:29:14;101060.89;;;4.20;100.00
62928;BME280;51070;52.236;-0.892;2023-12-14T09:31:43;101057.35;;;4.21;100.00
62928;BME280;51070;52.236;-0.892;2023-12-14T09:34:09;101054.06;;;4.23;100.00
62928;BME280;51070;52.236;-0.892;2023-12-14T09:36:35;101054.80;;;4.24;100.00
62928;BME280;51070;52.236;-0.892;2023-12-14T09:39:00;101053.41;;;4.24;100.00
62928;BME280;51070;52.236;-0.892;2023-12-14T09:41:25;101056.39;;;4.28;100.00
62928;BME280;51070;52.236;-0.892;2023-12-14T09:43:51;101059.36;;;4.31;100.00
62928;BME280;51070;52.236;-0.892;2023-12-14T09:46:17;101065.63;;;4.33;100.00
62928;BME280;51070;52.236;-0.892;2023-12-14T09:48:42;101064.25;;;4.36;100.00
62928;BME280;51070;52.236;-0.892;2023-12-14T09:51:08;101069.39;;;4.39;100.00
62928;BME280;51070;52.236;-0.892;2023-12-14T09:53:33;101075.44;;;4.42;100.00
62928;BME280;51070;52.236;-0.892;2023-12-14T09:55:59;101072.65;;;4.44;100.00
62928;BME280;51070;52.236;-0.892;2023-12-14T09:58:24;101080.05;;;4.50;100.00
62928;BME280;51070;52.236;-0.892;2023-12-14T10:00:49;101077.94;;;4.58;100.00
62928;BME280;51070;52.236;-0.892;2023-12-14T10:03:24;101083.33;;;4.61;100.00
62928;BME280;51070;52.236;-0.892;2023-12-14T10:05:51;101085.25;;;4.65;100.00
62928;BME280;51070;52.236;-0.892;2023-12-14T10:08:17;101089.60;;;4.69;100.00
62928;BME280;51070;52.236;-0.892;2023-12-14T10:10:43;101093.56;;;4.75;100.00
62928;BME280;51070;52.236;-0.892;2023-12-14T10:13:09;101098.30;;;4.83;100.00
62928;BME280;51070;52.236;-0.892;2023-12-14T10:15:44;101098.65;;;4.88;100.00
62928;BME280;51070;52.236;-0.892;2023-12-14T10:18:10;101098.36;;;4.95;100.00
62928;BME280;51070;52.236;-0.892;2023-12-14T10:20:35;101099.69;;;5.00;100.00
62928;BME280;51070;52.236;-0.892;2023-12-14T10:23:03;101096.27;;;5.03;100.00
62928;BME280;51070;52.236;-0.892;2023-12-14T10:25:28;101096.77;;;5.08;100.00
62928;BME280;51070;52.236;-0.892;2023-12-14T10:27:54;101100.41;;;5.15;100.00
62928;BME280;51070;52.236;-0.892;2023-12-14T10:30:19;101106.71;;;5.20;100.00
62928;BME280;51070;52.236;-0.892;2023-12-14T10:32:47;101099.92;;;5.21;100.00
62928;BME280;51070;52.236;-0.892;2023-12-14T10:35:14;101106.93;;;5.24;100.00
62928;BME280;51070;52.236;-0.892;2023-12-14T10:37:41;101107.29;;;5.24;100.00
62928;BME280;51070;52.236;-0.892;2023-12-14T10:40:09;101105.63;;;5.24;100.00
62928;BME280;51070;52.236;-0.892;2023-12-14T10:42:36;101105.39;;;5.32;100.00
62928;BME280;51070;52.236;-0.892;2023-12-14T10:45:02;101104.32;;;5.40;100.00
62928;BME280;51070;52.236;-0.892;2023-12-14T10:47:28;101105.20;;;5.49;100.00
62928;BME280;51070;52.236;-0.892;2023-12-14T10:49:53;101099.68;;;5.60;100.00
62928;BME280;51070;52.236;-0.892;2023-12-14T10:52:19;101099.10;;;5.65;100.00
62928;BME280;51070;52.236;-0.892;2023-12-14T10:54:46;101101.06;;;5.69;100.00
62928;BME280;51070;52.236;-0.892;2023-12-14T10:57:12;101107.44;;;5.76;100.00
62928;BME280;51070;52.236;-0.892;2023-12-14T10:59:37;101103.70;;;5.82;100.00
62928;BME280;51070;52.236;-0.892;2023-12-14T11:02:09;101105.83;;;5.84;100.00
62928;BME280;51070;52.236;-0.892;2023-12-14T11:04:53;101106.93;;;5.87;100.00
62928;BME280;51070;52.236;-0.892;2023-12-14T11:07:19;101106.88;;;5.95;100.00
62928;BME280;51070;52.236;-0.892;2023-12-14T11:10:04;101107.82;;;6.06;100.00
62928;BME280;51070;52.236;-0.892;2023-12-14T11:12:30;101110.52;;;6.14;100.00
62928;BME280;51070;52.236;-0.892;2023-12-14T11:14:58;101112.92;;;6.23;100.00
62928;BME280;51070;52.236;-0.892;2023-12-14T11:17:24;101112.35;;;6.28;100.00
62928;BME280;51070;52.236;-0.892;2023-12-14T11:19:49;101110.81;;;6.31;100.00
62928;BME280;51070;52.236;-0.892;2023-12-14T11:22:22;101112.16;;;6.35;100.00
62928;BME280;51070;52.236;-0.892;2023-12-14T11:24:51;101119.61;;;6.39;100.00
62928;BME280;51070;52.236;-0.892;2023-12-14T11:27:19;101119.61;;;6.42;100.00
62928;BME280;51070;52.236;-0.892;2023-12-14T11:29:45;101120.48;;;6.48;100.00
62928;BME280;51070;52.236;-0.892;2023-12-14T11:32:11;101117.01;;;6.54;100.00
62928;BME280;51070;52.236;-0.892;2023-12-14T11:34:38;101116.20;;;6.58;100.00
62928;BME280;51070;52.236;-0.892;2023-12-14T11:37:04;101114.94;;;6.63;100.00
62928;BME280;51070;52.236;-0.892;2023-12-14T11:39:31;101117.03;;;6.63;100.00
62928;BME280;51070;52.236;-0.892;2023-12-14T11:42:00;101116.67;;;6.66;100.00
62928;BME280;51070;52.236;-0.892;2023-12-14T11:44:25;101115.36;;;6.67;100.00
62928;BME280;51070;52.236;-0.892;2023-12-14T11:46:51;101114.73;;;6.68;100.00
62928;BME280;51070;52.236;-0.892;2023-12-14T11:49:16;101111.35;;;6.70;100.00
62928;BME280;51070;52.236;-0.892;2023-12-14T11:51:42;101110.16;;;6.70;100.00
62928;BME280;51070;52.236;-0.892;2023-12-14T11:54:10;101107.13;;;6.68;100.00
62928;BME280;51070;52.236;-0.892;2023-12-14T11:56:35;101104.73;;;6.71;100.00
62928;BME280;51070;52.236;-0.892;2023-12-14T11:59:01;101109.92;;;6.78;100.00
62928;BME280;51070;52.236;-0.892;2023-12-14T12:01:26;101115.84;;;6.87;100.00
62928;BME280;51070;52.236;-0.892;2023-12-14T12:03:53;101119.16;;;6.90;100.00
62928;BME280;51070;52.236;-0.892;2023-12-14T12:06:22;101115.88;;;6.94;100.00
62928;BME280;51070;52.236;-0.892;2023-12-14T12:08:48;101119.27;;;6.96;100.00
62928;BME280;51070;52.236;-0.892;2023-12-14T12:11:17;101116.14;;;6.95;100.00
62928;BME280;51070;52.236;-0.892;2023-12-14T12:13:43;101115.34;;;7.02;100.00
62928;BME280;51070;52.236;-0.892;2023-12-14T12:16:08;101113.80;;;7.12;100.00
62928;BME280;51070;52.236;-0.892;2023-12-14T12:18:33;101113.46;;;7.16;100.00
62928;BME280;51070;52.236;-0.892;2023-12-14T12:20:59;101114.61;;;7.15;100.00
62928;BME280;51070;52.236;-0.892;2023-12-14T12:23:29;101110.69;;;7.09;100.00
62928;BME280;51070;52.236;-0.892;2023-12-14T12:25:54;101105.63;;;7.07;100.00
62928;BME280;51070;52.236;-0.892;2023-12-14T12:28:20;101102.84;;;7.10;100.00
62928;BME280;51070;52.236;-0.892;2023-12-14T12:30:47;101104.71;;;7.13;100.00
62928;BME280;51070;52.236;-0.892;2023-12-14T12:33:12;101096.95;;;7.19;100.00
62928;BME280;51070;52.236;-0.892;2023-12-14T12:35:37;101092.03;;;7.27;100.00